Norwalk, Wisconsin
Current Conditions -  °F | °C
As of 7:55 PM on Saturday 25 Oct 2014 (Local Time) from KCMY Reporting Station
Clear Clear  
Wind Chill: 52°   Ceiling: Unl
Heat Index: 52°   Visibility: 10mi
Dew Point: 25°   Wind: 5mph
Humidity: 35%   Direction: 270°W
Pressure: 30"   Gusts: NA
Location:  43.83°N, 90.62°W
Report Text: KCMY 260055Z AUTO 27004KT 10SM CLR 11/M04 A3000 RMK AO2 T01131039
Loading
Personal Weather Stations






























Interactive Weather Map
Tropical Storm Tracking
New forecast layout! Learn more

10-Day Weather Forecast

Advertisements
Track Severe Weather on mobile